createdAt,value
2022-09-24T00:02:41.843Z,95894.72
2022-09-24T00:07:45.899Z,95884.28
2022-09-24T00:12:49.006Z,95878.84
2022-09-24T00:17:51.684Z,95883.66
2022-09-24T00:22:55.762Z,95889.69
2022-09-24T00:27:58.466Z,95878.84
2022-09-24T00:33:01.142Z,95873.94
2022-09-24T00:38:06.201Z,95877.09
2022-09-24T00:43:29.890Z,95884.94
2022-09-24T00:48:34.143Z,95896.97
2022-09-24T00:53:38.319Z,95889.75
2022-09-24T00:58:41.064Z,95874.06
2022-09-24T01:03:43.886Z,95874.81
2022-09-24T01:08:48.311Z,95874.28
2022-09-24T01:14:05.305Z,95874.13
2022-09-24T01:19:20.774Z,95874.72
2022-09-24T01:24:52.040Z,95868.25
2022-09-24T01:30:05.104Z,95867.53
2022-09-24T01:35:16.017Z,95860.19
2022-09-24T01:40:21.876Z,95859.53
2022-09-24T01:45:30.019Z,95860.72
2022-09-24T01:50:36.525Z,95877.13
2022-09-24T01:55:47.539Z,95860.09
2022-09-24T02:00:57.483Z,95864.78
2022-09-24T02:06:04.556Z,95856.00
2022-09-24T02:11:10.847Z,95849.94
2022-09-24T02:16:20.136Z,95864.75
2022-09-24T02:21:24.816Z,95840.97
2022-09-24T02:26:27.568Z,95832.53
2022-09-24T02:31:34.062Z,95825.47
2022-09-24T02:36:37.591Z,95824.00
2022-09-24T02:41:42.229Z,95829.06
2022-09-24T02:46:47.013Z,95808.75
2022-09-24T02:51:49.788Z,95815.66
2022-09-24T02:56:53.191Z,95817.28
2022-09-24T03:01:57.362Z,95814.00
2022-09-24T03:07:00.259Z,95821.88
2022-09-24T03:12:03.304Z,95817.56
2022-09-24T03:17:07.351Z,95817.38
2022-09-24T03:22:10.139Z,95809.00
2022-09-24T03:27:13.384Z,95811.44
2022-09-24T03:32:17.466Z,95807.69
2022-09-24T03:37:20.159Z,95808.53
2022-09-24T03:42:22.836Z,95804.28
2022-09-24T03:47:26.878Z,95798.28
2022-09-24T03:52:29.890Z,95797.47
2022-09-24T03:57:32.593Z,95802.53
2022-09-24T04:02:36.814Z,95793.66
2022-09-24T04:07:39.822Z,95789.53
2022-09-24T04:12:43.854Z,95791.63
2022-09-24T04:17:52.067Z,95786.53
2022-09-24T04:22:56.656Z,95783.47
2022-09-24T04:28:01.858Z,95779.38
2022-09-24T04:33:06.243Z,95789.72
2022-09-24T04:38:08.937Z,95777.28
2022-09-24T04:43:11.683Z,95776.13
2022-09-24T04:48:15.944Z,95775.28
2022-09-24T04:53:18.724Z,95776.31
2022-09-24T04:58:21.445Z,95784.53
2022-09-24T05:03:25.579Z,95784.53
2022-09-24T05:08:28.269Z,95778.63
2022-09-24T05:13:30.983Z,95776.03
2022-09-24T05:18:36.193Z,95777.00
2022-09-24T05:23:38.862Z,95778.81
2022-09-24T05:28:42.841Z,95785.38
2022-09-24T05:33:47.212Z,95785.94
2022-09-24T05:38:49.938Z,95794.78
2022-09-24T05:43:52.706Z,95798.03
2022-09-24T05:48:57.060Z,95795.41
2022-09-24T05:53:59.743Z,95797.22
2022-09-24T05:59:02.592Z,95805.09
2022-09-24T06:04:09.090Z,95805.69
2022-09-24T06:09:12.169Z,95808.66
2022-09-24T06:14:15.031Z,95817.84
2022-09-24T06:19:19.070Z,95809.31
2022-09-24T06:24:22.407Z,95815.88
2022-09-24T06:29:25.128Z,95813.88
2022-09-24T06:34:29.336Z,95817.16
2022-09-24T06:39:32.028Z,95815.81
2022-09-24T06:44:34.831Z,95810.38
2022-09-24T06:49:38.877Z,95807.59
2022-09-24T06:54:41.592Z,95804.50
2022-09-24T06:59:44.749Z,95815.75
2022-09-24T07:04:48.791Z,95801.66
2022-09-24T07:09:51.493Z,95813.44
2022-09-24T07:14:54.186Z,95816.00
2022-09-24T07:19:58.310Z,95819.56
2022-09-24T07:25:01.019Z,95825.78
2022-09-24T07:30:05.367Z,95827.06
2022-09-24T07:35:10.057Z,95823.91
2022-09-24T07:40:12.831Z,95826.00
2022-09-24T07:45:17.172Z,95830.19
2022-09-24T07:50:22.181Z,95829.50
2022-09-24T07:55:25.723Z,95825.31
2022-09-24T08:00:28.450Z,95820.38
2022-09-24T08:05:32.953Z,95828.31
2022-09-24T08:10:35.647Z,95832.13
2022-09-24T08:15:38.400Z,95836.91
2022-09-24T08:20:42.498Z,95835.78
2022-09-24T08:25:45.259Z,95838.50
2022-09-24T08:30:48.296Z,95828.72
2022-09-24T08:35:52.407Z,95825.59
2022-09-24T08:41:03.347Z,95821.59
2022-09-24T08:46:32.692Z,95827.38
2022-09-24T08:51:51.173Z,95828.03
2022-09-24T08:56:56.614Z,95835.84
2022-09-24T09:02:16.183Z,95832.41
2022-09-24T09:07:24.400Z,95831.69
2022-09-24T09:12:32.151Z,95823.19
2022-09-24T09:17:45.274Z,95822.25
2022-09-24T09:22:53.364Z,95837.59
2022-09-24T09:28:01.409Z,95830.16
2022-09-24T09:33:17.583Z,95824.59
2022-09-24T09:38:30.542Z,95831.22
2022-09-24T09:43:33.712Z,95816.31
2022-09-24T09:48:45.444Z,95811.28
2022-09-24T09:53:59.982Z,95805.78
2022-09-24T09:59:07.135Z,95807.59
2022-09-24T10:04:28.563Z,95807.00
2022-09-24T10:09:32.726Z,95803.00
2022-09-24T10:14:36.234Z,95795.66
2022-09-24T10:19:41.674Z,95800.53
2022-09-24T10:24:45.919Z,95789.16
2022-09-24T10:30:06.299Z,95789.78
2022-09-24T10:35:22.708Z,95782.69
2022-09-24T10:40:30.964Z,95778.59
2022-09-24T10:46:04.820Z,95776.16
2022-09-24T10:51:21.508Z,95773.94
2022-09-24T10:56:35.919Z,95760.91
2022-09-24T11:01:47.661Z,95761.34
2022-09-24T11:07:18.322Z,95773.56
2022-09-24T11:12:33.559Z,95763.13
2022-09-24T11:17:39.475Z,95753.81
2022-09-24T11:22:55.203Z,95754.63
2022-09-24T11:28:11.433Z,95756.66
2022-09-24T11:33:29.103Z,95744.47
2022-09-24T11:38:46.646Z,95747.31
2022-09-24T11:44:16.808Z,95748.94
2022-09-24T11:49:40.858Z,95738.78
2022-09-24T11:54:50.081Z,95730.22
2022-09-24T12:00:01.121Z,95730.59
2022-09-24T12:05:09.273Z,95725.59
2022-09-24T12:10:26.034Z,95711.72
2022-09-24T12:15:34.466Z,95706.63
2022-09-24T12:20:45.594Z,95699.13
2022-09-24T12:25:51.441Z,95709.34
2022-09-24T12:31:18.411Z,95699.69
2022-09-24T12:36:28.954Z,95705.03
2022-09-24T12:41:33.771Z,95686.09
2022-09-24T12:46:42.872Z,95690.53
2022-09-24T12:51:45.991Z,95691.31
2022-09-24T12:56:48.973Z,95687.94
2022-09-24T13:01:53.089Z,95674.88
2022-09-24T13:06:56.138Z,95679.66
2022-09-24T13:12:04.145Z,95669.34
2022-09-24T13:17:08.416Z,95664.63
2022-09-24T13:22:22.902Z,95655.28
2022-09-24T13:27:37.906Z,95661.88
2022-09-24T13:32:47.822Z,95665.34
2022-09-24T13:37:55.747Z,95662.19
2022-09-24T13:43:05.296Z,95658.13
2022-09-24T13:48:19.552Z,95641.16
2022-09-24T13:53:29.507Z,95632.81
2022-09-24T13:58:34.010Z,95637.81
2022-09-24T14:03:39.730Z,95639.22
2022-09-24T14:08:44.476Z,95633.94
2022-09-24T14:13:47.308Z,95624.66
2022-09-24T14:19:02.494Z,95617.78
2022-09-24T14:24:09.482Z,95615.81
2022-09-24T14:29:16.818Z,95625.28
2022-09-24T14:34:29.334Z,95617.91
2022-09-24T14:39:32.078Z,95611.50
2022-09-24T14:44:34.891Z,95613.38
2022-09-24T14:49:46.350Z,95617.63
2022-09-24T14:54:49.129Z,95611.13
2022-09-24T14:59:52.288Z,95599.75
2022-09-24T15:05:05.620Z,95600.00
2022-09-24T15:10:21.757Z,95591.78
2022-09-24T15:15:30.534Z,95580.72
2022-09-24T15:20:34.750Z,95583.81
2022-09-24T15:25:37.557Z,95587.50
2022-09-24T15:30:41.368Z,95588.88
2022-09-24T15:35:46.149Z,95584.97
2022-09-24T15:40:51.475Z,95576.81
2022-09-24T15:45:54.371Z,95580.03
2022-09-24T15:50:58.717Z,95582.28
2022-09-24T15:56:02.848Z,95588.88
2022-09-24T16:01:05.750Z,95579.75
2022-09-24T16:06:13.023Z,95571.09
2022-09-24T16:11:16.487Z,95574.59
2022-09-24T16:16:19.274Z,95581.22
2022-09-24T16:21:23.462Z,95574.13
2022-09-24T16:26:26.196Z,95566.97
2022-09-24T16:31:28.947Z,95557.47
2022-09-24T16:36:33.004Z,95571.81
2022-09-24T16:41:37.785Z,95571.13
2022-09-24T16:46:40.569Z,95575.72
